Time,TemperatureF,DewpointF,PressureIn,WindDirection,WindDirectionDegrees,WindSpeedMPH,WindSpeedGustMPH,Humidity,HourlyPrecipIn,Conditions,Clouds,dailyrainin,SolarRadiationWatts/m^2,SoftwareType,DateUTC
2013-01-20 00:42:00,46.0,21.0,-100.00,North,351,2.0,4.0,36,-99.99,,,0.00,4.000000,,2013-01-20 08:42:00,
2013-01-20 00:52:00,46.0,21.0,-100.00,North,351,2.0,4.0,36,-99.99,,,0.00,4.000000,,2013-01-20 08:52:00,
2013-01-20 01:33:00,43.0,20.0,-100.00,SSW,204,0.0,3.0,40,-99.99,,,0.00,5.000000,,2013-01-20 09:33:00,
2013-01-20 01:42:00,43.0,20.0,-100.00,SSW,204,0.0,3.0,40,-99.99,,,0.00,5.000000,,2013-01-20 09:42:00,
2013-01-20 01:52:00,43.0,20.0,-100.00,SSW,204,0.0,3.0,40,-99.99,,,0.00,5.000000,,2013-01-20 09:52:00,
2013-01-20 02:02:00,43.0,20.0,-100.00,SSW,204,0.0,3.0,40,-99.99,,,0.00,5.000000,,2013-01-20 10:02:00,
2013-01-20 02:32:00,47.0,22.0,-100.00,SSW,200,4.0,7.0,37,0.00,,,0.00,4.000000,,2013-01-20 10:32:00,
2013-01-20 02:42:00,47.0,22.0,-100.00,SSW,200,4.0,7.0,37,0.00,,,0.00,4.000000,,2013-01-20 10:42:00,
2013-01-20 02:52:00,47.0,22.0,-100.00,SSW,200,4.0,7.0,37,0.00,,,0.00,4.000000,,2013-01-20 10:52:00,
2013-01-20 03:33:00,46.0,21.0,-100.00,South,174,0.0,5.0,36,-99.99,,,0.00,5.000000,,2013-01-20 11:33:00,
2013-01-20 04:33:00,46.0,19.0,-100.00,SE,128,0.0,5.0,33,-99.99,,,0.00,4.000000,,2013-01-20 12:33:00,
2013-01-20 05:33:00,47.0,16.0,-100.00,WSW,243,0.0,4.0,29,-99.99,,,0.00,4.000000,,2013-01-20 13:33:00,
2013-01-20 06:33:00,43.0,17.0,-100.00,WSW,253,0.0,3.0,35,-99.99,,,0.00,4.000000,,2013-01-20 14:33:00,
2013-01-20 06:43:00,43.0,17.0,-100.00,WSW,253,0.0,3.0,35,-99.99,,,0.00,4.000000,,2013-01-20 14:43:00,
2013-01-20 06:53:00,43.0,17.0,-100.00,WSW,253,0.0,3.0,35,-99.99,,,0.00,4.000000,,2013-01-20 14:53:00,
2013-01-20 07:33:00,45.0,18.0,-100.00,WSW,249,0.0,5.0,33,0.00,,,0.00,4.000000,,2013-01-20 15:33:00,
2013-01-20 08:33:00,45.0,16.0,-100.00,WSW,245,0.0,4.0,31,0.00,,,0.00,13.000000,,2013-01-20 16:33:00,
2013-01-20 08:43:00,45.0,16.0,-100.00,WSW,245,0.0,4.0,31,0.00,,,0.00,13.000000,,2013-01-20 16:43:00,
2013-01-20 08:53:00,45.0,16.0,-100.00,WSW,245,0.0,4.0,31,0.00,,,0.00,13.000000,,2013-01-20 16:53:00,
2013-01-20 09:02:00,45.0,16.0,-100.00,WSW,245,0.0,4.0,31,0.00,,,0.00,13.000000,,2013-01-20 17:02:00,
2013-01-20 09:33:00,50.0,20.0,-100.00,NW,308,0.0,4.0,30,-99.99,,,0.00,116.000000,,2013-01-20 17:33:00,
2013-01-20 09:43:00,50.0,20.0,-100.00,NW,308,0.0,4.0,30,-99.99,,,0.00,116.000000,,2013-01-20 17:43:00,
2013-01-20 09:53:00,50.0,20.0,-100.00,NW,308,0.0,4.0,30,-99.99,,,0.00,116.000000,,2013-01-20 17:53:00,
2013-01-20 10:33:00,57.0,20.0,-100.00,WSW,241,0.0,5.0,23,-99.99,,,0.00,307.000000,,2013-01-20 18:33:00,
2013-01-20 11:33:00,62.0,33.0,-100.00,South,185,0.0,4.0,34,-99.99,,,0.00,460.000000,,2013-01-20 19:33:00,
2013-01-20 12:42:00,58.0,19.0,-100.00,NNW,336,0.0,0.0,22,-99.99,,,0.00,554.000000,,2013-01-20 20:42:00,
2013-01-20 12:53:00,58.0,19.0,-100.00,NNW,336,0.0,0.0,22,-99.99,,,0.00,554.000000,,2013-01-20 20:53:00,
2013-01-20 13:33:00,56.0,21.0,-100.00,NNW,344,0.0,4.0,25,-99.99,,,0.00,574.000000,,2013-01-20 21:33:00,
2013-01-20 14:33:00,57.0,22.0,-100.00,North,4,0.0,4.0,26,-99.99,,,0.00,525.000000,,2013-01-20 22:33:00,
2013-01-20 15:33:00,59.0,34.0,-100.00,South,170,0.0,0.0,39,-99.99,,,0.00,405.000000,,2013-01-20 23:33:00,
2013-01-20 16:33:00,55.0,35.0,-100.00,East,85,0.0,3.0,47,-99.99,,,0.00,188.000000,,2013-01-21 00:33:00,
2013-01-20 17:33:00,45.0,34.0,-100.00,SSW,201,0.0,0.0,64,-99.99,,,0.00,23.000000,,2013-01-21 01:33:00,
2013-01-20 18:33:00,48.0,22.0,-100.00,NE,47,0.0,2.0,36,-99.99,,,0.00,6.000000,,2013-01-21 02:33:00,
2013-01-20 19:33:00,46.0,27.0,-100.00,North,10,3.0,5.0,47,-99.99,,,-99.99,5.000000,,2013-01-21 03:33:00,
2013-01-20 20:33:00,46.0,27.0,-100.00,WSW,245,1.0,4.0,47,0.00,,,0.00,5.000000,,2013-01-21 04:33:00,
2013-01-20 20:43:00,46.0,27.0,-100.00,WSW,245,1.0,4.0,47,0.00,,,0.00,5.000000,,2013-01-21 04:43:00,
2013-01-20 20:53:00,46.0,27.0,-100.00,WSW,245,1.0,4.0,47,0.00,,,0.00,5.000000,,2013-01-21 04:53:00,
2013-01-20 21:34:00,46.0,26.0,-100.00,South,183,0.0,3.0,46,-99.99,,,0.00,5.000000,,2013-01-21 05:34:00,
2013-01-20 21:42:00,46.0,26.0,-100.00,South,183,0.0,3.0,46,-99.99,,,0.00,5.000000,,2013-01-21 05:42:00,
2013-01-20 21:53:00,46.0,26.0,-100.00,South,183,0.0,3.0,46,-99.99,,,0.00,5.000000,,2013-01-21 05:53:00,
2013-01-20 22:33:00,44.0,23.0,-100.00,South,190,4.0,8.0,44,-99.99,,,0.00,5.000000,,2013-01-21 06:33:00,
2013-01-20 23:11:00,44.0,23.0,-100.00,South,190,4.0,8.0,44,-99.99,,,0.00,5.000000,,2013-01-21 07:11:00,
2013-01-20 23:33:00,43.0,22.0,-100.00,South,179,2.0,7.0,43,0.00,,,0.00,5.000000,,2013-01-21 07:33:00,
2013-01-20 23:42:00,43.0,22.0,-100.00,South,179,2.0,7.0,43,0.00,,,0.00,5.000000,,2013-01-21 07:42:00,
2013-01-20 23:53:00,43.0,22.0,-100.00,South,179,2.0,7.0,43,0.00,,,0.00,5.000000,,2013-01-21 07:53:00,